Sunday, February 14, 2016
04:05 UTC
  |  Log In   |  Register Free
Airport Search:

Fresno Yosemite International Airport
(KFAT)

FAA data valid effective Feb 4 2016 - Mar 31 2016 (unless otherwise noted).

 
 
 
 
 
 
 
 
 
 
 
 
 
 
Summary: Fresno Yosemite International (FAT)

Weather Summary


METAR for KFAT is not available. Closest METAR is for KMAE
KFAT  (most recent observation was updatred at 14:02 UTC)
140253Z 00000KT 5SM HZ CLR 16/11 A3023 RMK AO2 SLP234 T01560106 53013

KMAE  (22.8 nm SE)   (most recent observation was updated at 14:02 UTC)
140253Z AUTO 00000KT 10SM CLR 14/11 A3023 RMK AO2 SLP235 T01440106 53014

KHJO  (27.9 nm NW)   (most recent observation was updated at 14:02 UTC)
140253Z AUTO 36003KT 6SM HZ CLR 15/11 A3022 RMK AO2 SLP235 T01500106 53006

TAF for KFAT is not available.
KFAT
132331Z 1400/1424 VRB05KT 4SM HZ SCT200 FM140600 VRB03KT 3SM BR SKC TEMPO 1410/1414 2SM BR FM141800 VRB04KT 4SM HZ SKC

KVIS  (31.6 nm NW)   (most recent observation was updatred at 13:23 UTC)
132331Z 1400/1424 VRB04KT P6SM SCT200 FM140400 VRB03KT 4SM HZ SKC FM140600 00000KT 3SM BR SKC TEMPO 1406/1410 1 1/2SM BR FM141000 00000KT 1 1/2SM BR SKC TEMPO 1412/1416 1/2SM FG VV001 FM141800 VRB03KT 3SM HZ SKC FM142100 VRB04KT P6SM SKC


GlobalAir.com is loading additional information.
 Current Weather at FAT
60.0 F° (15.6 C°)
Fair with Haze
North winds at 0.0 mph
Pressure:
30.23 in
Humidity:
72%
Wind:
Calm
Dew Point:
51.1 F° (10.6 C°)
Visibility:
5.00 mi
FAT NOAA Radar

Communications Summary


CTAFN/A
UNICOM122.95
ATIS121.35
WX ASOS
FRESNO GROUND121.7 [24 Hours]
FRESNO TOWER118.2 [24 Hours]
FRESNO APPROACH118.5
118.5 (S/SE VISALIA AREA)
119.0
119.45
119.6
119.6 (240-090)
123.9
132.35 (091-239)
323.25
351.95
FRESNO DEPARTURE118.5
118.5 (S/SE VISALIA AREA)
119.0
119.45
119.6 (240-090)
123.9
132.35 (091-239)
323.25
CLEARANCE DELIVERY124.35
EMERGENCY121.5

Closest Alternate Airports with Instrument Procedures

KFCH - Fresno Chandler Executive - 6.4 nm SW from FAT

KMAE - Madera Municipal - 26.3 nm NW from FAT

KHJO - Hanford Municipal - 32.2 nm SE from FAT

KVIS - Visalia Municipal - 36.4 nm SE from FAT

KF34 - Firebaugh - 41.7 nm NW from FAT

KTLR - Mefford Field - 48.1 nm SE from FAT

KMPI - Mariposa-Yosemite - 53.8 nm NW from FAT

KMCE - Merced Municipal/Macready Field - 56.3 nm NW from FAT

KMER - Castle - 62.8 nm NW from FAT

KPTV - Porterville Municipal - 63.2 nm SE from FAT

Find All Airport Services Find A Hotel Find A Rental Car Find A Golf Course Find A Restaurant $100 Hamburger



FBO's on the Field
FBO Company Facility Photos Services Transportation Aviation Fuel Prices: Prices include tax
Catering Weather Repair Courtesy Rental Type 100LL JetA JetA+ MOGAS 8087
 
Landmark Aviation - FAT

This FBO has not yet been rated
FS:Chevron
Last Updated: Feb-12
Login to update fuel prices
SS:
Contact Landmark Aviation - FATMore FBO Information
 
Signature Flight Support - FAT

This FBO has not yet been rated
FS:Independent
Last Updated: Feb-12
Login to update fuel prices
SS:
Contact Signature Flight Support - FATMore FBO Information
 
Add another FBO Facility Photos Catering Weather Repair Courtesy Rental Type 100LL JetA JetA+ MOGAS 8087
Services Transportation Aviation Fuel Prices: Prices include tax


model-print
model-print
model-print
model-print